Северный

Карта отелей и гостиниц, располагающихся рядом с аэропортом Северный :

Северный
Грозный
Чеченская республика 43° 23' 17.52" N, 45° 41' 59.46" E
Код аэродрома ИКАО
URMG
Код аэродрома RU
УРМГ
Координаты
N43.38820° E045.69985°
Превышение над уровнем моря
166
Основная полоса
08/26
Курс магнитный
079,7/259,7
Длина основной ВПП
2505
Ширина основной ВПП
45
Покрытие основной ВПП
Твёрдое (асфальтобетон)
Освещение ВПП
Постоянное
Тип: 
Аэродром
Класс аэродрома: 
Международный
Принадлежность: 
ГА
Статус: 
Действующий
Сайт: 
http://vaynahavia.ru/
E-mail аэродрома: 
vaynah-avia@mail.ru
Страна: 
Россия
Регион: 
Чеченская республика
Город: 
Грозный
Дополнительная информация: 
Оператор: нет данных. Нкр.=(900)м.
Схемы аэропортов: 
Погода: 

Авиационная погода в Грозном

Регион: 
Погода METAR: 
URMG 271500Z 35002MPS CAVOK 09/04 Q1015 R26/090070 NOSIG RMK QFE747/0996
Время наблюдения
2021-02-27T15:00:00Z
Температура C
9.0
Точка росы
4.0
Направление ветра
350
Скорость ветра (узлы)
4
Метео видимость
6.21
Явления погоды
Условия полета
VFR
Аэропорт подробнее: 

Найти трансфер

С помощью этой формы Вы можете найти трансфер из аэропорта Северный в город, аэропорт или вокзал:

Карта места

Javascript is required to view this map.

Погода в аэропортах:

Авиационная погода в Уфе

Регион: 
Погода METAR: 
UWUU 271500Z 11005MPS 3000 -SN OVC012 M10/M11 Q1001 R14R/491040 NOSIG
Время наблюдения
2021-02-27T15:00:00Z
Температура C
-10.0
Точка росы
-11.0
Направление ветра
110
Скорость ветра (узлы)
10
Метео видимость
1.86
Явления погоды
-SN
Условия полета
IFR
Аэропорт подробнее: 

Авиационная погода в Атырау

Регион: 
Погода METAR: 
UATG 271500Z 23007MPS 0700 R14/1600N FG VV001 01/01 Q1009 R14/29//60 NOSIG RMK QBB050 QFE759/1012
Время наблюдения
2021-02-27T15:00:00Z
Температура C
1.0
Точка росы
1.0
Направление ветра
230
Скорость ветра (узлы)
14
Метео видимость
0.43
Явления погоды
FG
Условия полета
LIFR

Авиационная погода в Самаре

Регион: 
Погода METAR: 
UWWW 271500Z 31007MPS 0900 0800SE R15/2000 +SN VV005 M01/M02 Q0997 R15/550235 NOSIG RMK QFE736/0982
Время наблюдения
2021-02-27T15:00:00Z
Температура C
-1.0
Точка росы
-2.0
Направление ветра
310
Скорость ветра (узлы)
14
Метео видимость
0.56
Явления погоды
+SN
Условия полета
LIFR
Аэропорт подробнее: 

Авиационная погода в Емельяново

Регион: 
Погода METAR: 
UNKL 271500Z 24003MPS 5000 -SN SCT015 M20/M24 Q1030 R29/450245 NOSIG RMK QFE747
Время наблюдения
2021-02-27T15:00:00Z
Температура C
-20.0
Точка росы
-24.0
Направление ветра
240
Скорость ветра (узлы)
6
Метео видимость
3.11
Явления погоды
-SN
Условия полета
MVFR
Аэропорт подробнее: